sensor_id;sensor_type;location;lat;lon;timestamp;P1;durP1;ratioP1;P2;durP2;ratioP2
11298;SDS011;5705;49.006;12.100;2022-08-01T00:00:50;1.83;;;1.70;;
11298;SDS011;5705;49.006;12.100;2022-08-01T00:03:17;1.80;;;1.70;;
11298;SDS011;5705;49.006;12.100;2022-08-01T00:05:45;2.20;;;2.00;;
11298;SDS011;5705;49.006;12.100;2022-08-01T00:08:13;2.53;;;2.30;;
11298;SDS011;5705;49.006;12.100;2022-08-01T00:10:41;2.13;;;1.90;;
11298;SDS011;5705;49.006;12.100;2022-08-01T00:13:08;1.63;;;1.57;;
11298;SDS011;5705;49.006;12.100;2022-08-01T00:15:36;2.20;;;2.00;;
11298;SDS011;5705;49.006;12.100;2022-08-01T00:18:06;1.87;;;1.77;;
11298;SDS011;5705;49.006;12.100;2022-08-01T00:20:33;2.40;;;2.03;;
11298;SDS011;5705;49.006;12.100;2022-08-01T00:23:01;2.00;;;1.70;;
11298;SDS011;5705;49.006;12.100;2022-08-01T00:25:29;2.03;;;1.70;;
11298;SDS011;5705;49.006;12.100;2022-08-01T00:27:59;1.80;;;1.70;;
11298;SDS011;5705;49.006;12.100;2022-08-01T00:30:29;1.70;;;1.60;;
11298;SDS011;5705;49.006;12.100;2022-08-01T00:32:57;1.93;;;1.73;;
11298;SDS011;5705;49.006;12.100;2022-08-01T00:35:26;1.90;;;1.70;;
11298;SDS011;5705;49.006;12.100;2022-08-01T00:37:54;2.37;;;1.77;;
11298;SDS011;5705;49.006;12.100;2022-08-01T00:40:22;1.70;;;1.57;;
11298;SDS011;5705;49.006;12.100;2022-08-01T00:42:50;2.10;;;2.00;;
11298;SDS011;5705;49.006;12.100;2022-08-01T00:45:17;1.63;;;1.53;;
11298;SDS011;5705;49.006;12.100;2022-08-01T00:47:45;1.70;;;1.60;;
11298;SDS011;5705;49.006;12.100;2022-08-01T00:50:20;1.70;;;1.60;;
11298;SDS011;5705;49.006;12.100;2022-08-01T00:52:51;2.37;;;1.60;;
11298;SDS011;5705;49.006;12.100;2022-08-01T00:55:19;1.70;;;1.60;;
11298;SDS011;5705;49.006;12.100;2022-08-01T00:57:47;1.90;;;1.80;;
11298;SDS011;5705;49.006;12.100;2022-08-01T01:00:31;1.83;;;1.53;;
11298;SDS011;5705;49.006;12.100;2022-08-01T01:03:19;2.10;;;1.50;;
11298;SDS011;5705;49.006;12.100;2022-08-01T01:05:56;1.77;;;1.67;;
11298;SDS011;5705;49.006;12.100;2022-08-01T01:08:34;1.70;;;1.60;;
11298;SDS011;5705;49.006;12.100;2022-08-01T01:11:07;2.13;;;1.60;;
11298;SDS011;5705;49.006;12.100;2022-08-01T01:13:37;2.13;;;1.50;;
11298;SDS011;5705;49.006;12.100;2022-08-01T01:16:15;2.00;;;1.90;;
11298;SDS011;5705;49.006;12.100;2022-08-01T01:18:45;2.40;;;2.00;;
11298;SDS011;5705;49.006;12.100;2022-08-01T01:21:26;2.40;;;2.20;;
11298;SDS011;5705;49.006;12.100;2022-08-01T01:24:01;2.67;;;2.20;;
11298;SDS011;5705;49.006;12.100;2022-08-01T01:26:36;1.93;;;1.83;;
11298;SDS011;5705;49.006;12.100;2022-08-01T01:29:11;1.97;;;1.87;;
11298;SDS011;5705;49.006;12.100;2022-08-01T01:31:42;1.83;;;1.73;;
11298;SDS011;5705;49.006;12.100;2022-08-01T01:34:12;1.93;;;1.80;;
11298;SDS011;5705;49.006;12.100;2022-08-01T01:36:41;2.10;;;2.00;;
11298;SDS011;5705;49.006;12.100;2022-08-01T01:39:09;2.50;;;2.30;;
11298;SDS011;5705;49.006;12.100;2022-08-01T01:41:37;1.90;;;1.80;;
11298;SDS011;5705;49.006;12.100;2022-08-01T01:44:06;2.10;;;2.00;;
11298;SDS011;5705;49.006;12.100;2022-08-01T01:46:35;1.80;;;1.80;;
11298;SDS011;5705;49.006;12.100;2022-08-01T01:49:03;2.40;;;2.23;;
11298;SDS011;5705;49.006;12.100;2022-08-01T01:51:32;3.00;;;1.90;;
11298;SDS011;5705;49.006;12.100;2022-08-01T01:54:00;2.20;;;2.07;;
11298;SDS011;5705;49.006;12.100;2022-08-01T01:56:28;2.40;;;2.20;;
11298;SDS011;5705;49.006;12.100;2022-08-01T01:58:57;2.70;;;2.27;;
11298;SDS011;5705;49.006;12.100;2022-08-01T02:01:28;2.20;;;2.10;;
11298;SDS011;5705;49.006;12.100;2022-08-01T02:04:18;2.33;;;2.23;;
11298;SDS011;5705;49.006;12.100;2022-08-01T02:06:50;2.67;;;1.97;;
11298;SDS011;5705;49.006;12.100;2022-08-01T02:09:20;2.20;;;2.00;;
11298;SDS011;5705;49.006;12.100;2022-08-01T02:11:49;2.10;;;1.83;;
11298;SDS011;5705;49.006;12.100;2022-08-01T02:14:37;2.20;;;2.10;;
11298;SDS011;5705;49.006;12.100;2022-08-01T02:17:06;2.20;;;2.10;;
11298;SDS011;5705;49.006;12.100;2022-08-01T02:19:38;1.87;;;1.77;;
11298;SDS011;5705;49.006;12.100;2022-08-01T02:22:07;2.40;;;1.87;;
11298;SDS011;5705;49.006;12.100;2022-08-01T02:24:39;1.73;;;1.60;;
11298;SDS011;5705;49.006;12.100;2022-08-01T02:27:11;2.27;;;1.83;;
11298;SDS011;5705;49.006;12.100;2022-08-01T02:29:41;2.47;;;1.90;;
11298;SDS011;5705;49.006;12.100;2022-08-01T02:32:10;2.20;;;2.03;;
11298;SDS011;5705;49.006;12.100;2022-08-01T02:34:41;2.37;;;2.27;;
11298;SDS011;5705;49.006;12.100;2022-08-01T02:37:09;2.03;;;1.90;;
11298;SDS011;5705;49.006;12.100;2022-08-01T02:39:37;3.00;;;2.80;;
11298;SDS011;5705;49.006;12.100;2022-08-01T02:42:06;3.17;;;2.97;;
11298;SDS011;5705;49.006;12.100;2022-08-01T02:44:36;4.00;;;3.60;;
11298;SDS011;5705;49.006;12.100;2022-08-01T02:47:05;3.87;;;3.57;;
11298;SDS011;5705;49.006;12.100;2022-08-01T02:49:37;4.00;;;3.70;;
11298;SDS011;5705;49.006;12.100;2022-08-01T02:52:08;3.97;;;3.43;;
11298;SDS011;5705;49.006;12.100;2022-08-01T02:54:38;3.50;;;3.30;;
11298;SDS011;5705;49.006;12.100;2022-08-01T02:57:06;3.83;;;3.63;;
11298;SDS011;5705;49.006;12.100;2022-08-01T02:59:39;2.63;;;2.43;;
11298;SDS011;5705;49.006;12.100;2022-08-01T03:02:07;3.00;;;2.00;;
11298;SDS011;5705;49.006;12.100;2022-08-01T03:04:36;4.43;;;4.10;;
11298;SDS011;5705;49.006;12.100;2022-08-01T03:07:06;4.90;;;4.50;;
11298;SDS011;5705;49.006;12.100;2022-08-01T03:09:37;3.50;;;3.20;;
11298;SDS011;5705;49.006;12.100;2022-08-01T03:12:07;2.63;;;2.30;;
11298;SDS011;5705;49.006;12.100;2022-08-01T03:14:38;2.40;;;2.20;;
11298;SDS011;5705;49.006;12.100;2022-08-01T03:17:07;2.00;;;1.90;;
11298;SDS011;5705;49.006;12.100;2022-08-01T03:19:36;2.30;;;2.10;;
11298;SDS011;5705;49.006;12.100;2022-08-01T03:22:05;2.97;;;1.50;;
11298;SDS011;5705;49.006;12.100;2022-08-01T03:24:35;1.50;;;1.40;;
11298;SDS011;5705;49.006;12.100;2022-08-01T03:27:03;1.67;;;1.57;;
11298;SDS011;5705;49.006;12.100;2022-08-01T03:29:31;1.73;;;1.63;;
11298;SDS011;5705;49.006;12.100;2022-08-01T03:32:00;1.77;;;1.67;;
11298;SDS011;5705;49.006;12.100;2022-08-01T03:34:28;1.60;;;1.50;;
11298;SDS011;5705;49.006;12.100;2022-08-01T03:36:57;1.97;;;1.80;;
11298;SDS011;5705;49.006;12.100;2022-08-01T03:39:28;1.63;;;1.57;;
11298;SDS011;5705;49.006;12.100;2022-08-01T03:42:01;1.60;;;1.50;;
11298;SDS011;5705;49.006;12.100;2022-08-01T03:44:35;1.57;;;1.47;;
11298;SDS011;5705;49.006;12.100;2022-08-01T03:47:05;3.27;;;1.50;;
11298;SDS011;5705;49.006;12.100;2022-08-01T03:49:35;1.87;;;1.70;;
11298;SDS011;5705;49.006;12.100;2022-08-01T03:52:07;2.30;;;1.73;;
11298;SDS011;5705;49.006;12.100;2022-08-01T03:54:36;1.93;;;1.83;;
11298;SDS011;5705;49.006;12.100;2022-08-01T03:57:09;2.00;;;1.90;;
11298;SDS011;5705;49.006;12.100;2022-08-01T03:59:57;1.80;;;1.70;;
11298;SDS011;5705;49.006;12.100;2022-08-01T04:02:26;2.07;;;1.97;;
11298;SDS011;5705;49.006;12.100;2022-08-01T04:04:54;2.17;;;1.50;;
11298;SDS011;5705;49.006;12.100;2022-08-01T04:07:23;1.67;;;1.57;;
11298;SDS011;5705;49.006;12.100;2022-08-01T04:09:52;2.00;;;1.70;;
11298;SDS011;5705;49.006;12.100;2022-08-01T04:12:21;2.00;;;1.90;;
11298;SDS011;5705;49.006;12.100;2022-08-01T04:14:49;1.90;;;1.80;;
11298;SDS011;5705;49.006;12.100;2022-08-01T04:17:17;2.30;;;2.13;;
11298;SDS011;5705;49.006;12.100;2022-08-01T04:19:45;1.97;;;1.77;;
11298;SDS011;5705;49.006;12.100;2022-08-01T04:22:13;3.07;;;1.90;;
11298;SDS011;5705;49.006;12.100;2022-08-01T04:24:42;2.20;;;1.63;;
11298;SDS011;5705;49.006;12.100;2022-08-01T04:27:23;2.17;;;2.03;;
11298;SDS011;5705;49.006;12.100;2022-08-01T04:30:15;1.90;;;1.80;;
11298;SDS011;5705;49.006;12.100;2022-08-01T04:32:46;1.80;;;1.70;;
11298;SDS011;5705;49.006;12.100;2022-08-01T04:35:14;2.20;;;1.60;;
11298;SDS011;5705;49.006;12.100;2022-08-01T04:38:03;1.50;;;1.50;;
11298;SDS011;5705;49.006;12.100;2022-08-01T04:40:31;2.37;;;1.83;;
11298;SDS011;5705;49.006;12.100;2022-08-01T04:43:01;2.10;;;1.67;;
11298;SDS011;5705;49.006;12.100;2022-08-01T04:45:29;2.47;;;1.80;;
11298;SDS011;5705;49.006;12.100;2022-08-01T04:47:57;2.60;;;1.60;;
11298;SDS011;5705;49.006;12.100;2022-08-01T04:50:26;1.77;;;1.67;;
11298;SDS011;5705;49.006;12.100;2022-08-01T04:52:54;1.73;;;1.63;;
11298;SDS011;5705;49.006;12.100;2022-08-01T04:55:22;2.10;;;2.00;;
11298;SDS011;5705;49.006;12.100;2022-08-01T04:57:49;1.97;;;1.80;;
11298;SDS011;5705;49.006;12.100;2022-08-01T05:00:19;1.80;;;1.67;;
11298;SDS011;5705;49.006;12.100;2022-08-01T05:02:46;3.20;;;1.80;;
11298;SDS011;5705;49.006;12.100;2022-08-01T05:05:16;1.60;;;1.60;;
11298;SDS011;5705;49.006;12.100;2022-08-01T05:07:44;2.07;;;1.50;;
11298;SDS011;5705;49.006;12.100;2022-08-01T05:10:12;3.10;;;1.70;;
11298;SDS011;5705;49.006;12.100;2022-08-01T05:12:39;3.67;;;1.80;;
11298;SDS011;5705;49.006;12.100;2022-08-01T05:15:08;1.60;;;1.50;;
11298;SDS011;5705;49.006;12.100;2022-08-01T05:17:42;2.20;;;2.10;;
11298;SDS011;5705;49.006;12.100;2022-08-01T05:20:10;2.00;;;1.90;;
11298;SDS011;5705;49.006;12.100;2022-08-01T05:22:38;1.93;;;1.70;;
11298;SDS011;5705;49.006;12.100;2022-08-01T05:25:06;1.90;;;1.67;;
11298;SDS011;5705;49.006;12.100;2022-08-01T05:27:34;1.80;;;1.50;;
11298;SDS011;5705;49.006;12.100;2022-08-01T05:30:06;2.03;;;1.83;;
11298;SDS011;5705;49.006;12.100;2022-08-01T05:32:34;1.83;;;1.73;;
11298;SDS011;5705;49.006;12.100;2022-08-01T05:35:05;1.80;;;1.70;;
11298;SDS011;5705;49.006;12.100;2022-08-01T05:37:33;1.90;;;1.80;;
11298;SDS011;5705;49.006;12.100;2022-08-01T05:40:02;1.80;;;1.70;;
11298;SDS011;5705;49.006;12.100;2022-08-01T05:42:30;1.93;;;1.83;;
11298;SDS011;5705;49.006;12.100;2022-08-01T05:44:58;2.33;;;1.87;;
11298;SDS011;5705;49.006;12.100;2022-08-01T05:47:26;1.67;;;1.57;;
11298;SDS011;5705;49.006;12.100;2022-08-01T05:49:54;2.57;;;1.50;;
11298;SDS011;5705;49.006;12.100;2022-08-01T05:52:23;2.07;;;1.93;;
11298;SDS011;5705;49.006;12.100;2022-08-01T05:54:51;2.50;;;1.80;;
11298;SDS011;5705;49.006;12.100;2022-08-01T05:57:18;4.07;;;2.33;;
11298;SDS011;5705;49.006;12.100;2022-08-01T05:59:47;1.67;;;1.57;;
11298;SDS011;5705;49.006;12.100;2022-08-01T06:02:15;2.17;;;1.70;;
11298;SDS011;5705;49.006;12.100;2022-08-01T06:04:43;1.87;;;1.77;;
11298;SDS011;5705;49.006;12.100;2022-08-01T06:07:11;7.27;;;2.00;;
11298;SDS011;5705;49.006;12.100;2022-08-01T06:09:40;4.10;;;1.70;;
11298;SDS011;5705;49.006;12.100;2022-08-01T06:12:07;2.80;;;1.53;;
11298;SDS011;5705;49.006;12.100;2022-08-01T06:14:35;1.33;;;1.17;;
11298;SDS011;5705;49.006;12.100;2022-08-01T06:17:03;1.50;;;1.40;;
11298;SDS011;5705;49.006;12.100;2022-08-01T06:19:31;1.77;;;1.60;;
11298;SDS011;5705;49.006;12.100;2022-08-01T06:21:59;2.17;;;1.67;;
11298;SDS011;5705;49.006;12.100;2022-08-01T06:24:26;1.43;;;1.10;;
11298;SDS011;5705;49.006;12.100;2022-08-01T06:26:56;1.80;;;1.30;;
11298;SDS011;5705;49.006;12.100;2022-08-01T06:29:23;1.73;;;1.50;;
11298;SDS011;5705;49.006;12.100;2022-08-01T06:31:55;1.30;;;1.30;;
11298;SDS011;5705;49.006;12.100;2022-08-01T06:34:22;2.73;;;1.30;;
11298;SDS011;5705;49.006;12.100;2022-08-01T06:36:50;1.40;;;1.30;;
11298;SDS011;5705;49.006;12.100;2022-08-01T06:39:18;1.53;;;1.43;;
11298;SDS011;5705;49.006;12.100;2022-08-01T06:41:46;2.60;;;1.70;;
11298;SDS011;5705;49.006;12.100;2022-08-01T06:44:15;1.20;;;1.10;;
11298;SDS011;5705;49.006;12.100;2022-08-01T06:46:43;1.10;;;1.10;;
11298;SDS011;5705;49.006;12.100;2022-08-01T06:49:11;1.83;;;1.30;;
11298;SDS011;5705;49.006;12.100;2022-08-01T06:51:38;2.73;;;1.23;;
11298;SDS011;5705;49.006;12.100;2022-08-01T06:54:06;1.10;;;1.00;;
11298;SDS011;5705;49.006;12.100;2022-08-01T06:56:34;2.20;;;0.90;;
11298;SDS011;5705;49.006;12.100;2022-08-01T06:59:01;3.00;;;1.07;;
11298;SDS011;5705;49.006;12.100;2022-08-01T07:01:31;1.53;;;1.20;;
11298;SDS011;5705;49.006;12.100;2022-08-01T07:04:00;1.17;;;1.17;;
11298;SDS011;5705;49.006;12.100;2022-08-01T07:06:28;0.93;;;0.93;;
11298;SDS011;5705;49.006;12.100;2022-08-01T07:08:56;1.37;;;1.00;;
11298;SDS011;5705;49.006;12.100;2022-08-01T07:11:31;1.30;;;1.20;;
11298;SDS011;5705;49.006;12.100;2022-08-01T07:13:59;1.10;;;1.00;;
11298;SDS011;5705;49.006;12.100;2022-08-01T07:16:27;5.37;;;1.17;;
11298;SDS011;5705;49.006;12.100;2022-08-01T07:18:56;1.30;;;1.20;;
11298;SDS011;5705;49.006;12.100;2022-08-01T07:21:23;2.27;;;1.40;;
11298;SDS011;5705;49.006;12.100;2022-08-01T07:24:06;1.83;;;1.20;;
11298;SDS011;5705;49.006;12.100;2022-08-01T07:26:39;1.40;;;1.27;;
11298;SDS011;5705;49.006;12.100;2022-08-01T07:29:19;3.17;;;1.30;;
11298;SDS011;5705;49.006;12.100;2022-08-01T07:31:47;1.30;;;0.93;;
11298;SDS011;5705;49.006;12.100;2022-08-01T07:34:16;1.87;;;0.90;;
11298;SDS011;5705;49.006;12.100;2022-08-01T07:36:45;0.80;;;0.80;;
11298;SDS011;5705;49.006;12.100;2022-08-01T07:39:12;2.80;;;1.13;;
11298;SDS011;5705;49.006;12.100;2022-08-01T07:41:40;2.23;;;1.10;;
11298;SDS011;5705;49.006;12.100;2022-08-01T07:44:28;1.20;;;0.90;;
11298;SDS011;5705;49.006;12.100;2022-08-01T07:46:56;1.20;;;1.07;;
11298;SDS011;5705;49.006;12.100;2022-08-01T07:49:25;2.30;;;1.20;;
11298;SDS011;5705;49.006;12.100;2022-08-01T07:51:52;1.33;;;1.10;;
11298;SDS011;5705;49.006;12.100;2022-08-01T07:54:38;1.83;;;1.40;;
11298;SDS011;5705;49.006;12.100;2022-08-01T07:57:06;1.03;;;0.90;;
11298;SDS011;5705;49.006;12.100;2022-08-01T07:59:33;1.10;;;1.10;;
11298;SDS011;5705;49.006;12.100;2022-08-01T08:02:01;2.00;;;1.23;;
11298;SDS011;5705;49.006;12.100;2022-08-01T08:04:31;3.50;;;1.20;;
11298;SDS011;5705;49.006;12.100;2022-08-01T08:06:59;1.13;;;1.13;;
11298;SDS011;5705;49.006;12.100;2022-08-01T08:09:27;2.03;;;1.00;;
11298;SDS011;5705;49.006;12.100;2022-08-01T08:11:54;1.30;;;1.20;;
11298;SDS011;5705;49.006;12.100;2022-08-01T08:14:22;1.55;;;1.00;;
11298;SDS011;5705;49.006;12.100;2022-08-01T08:16:58;1.07;;;1.07;;
11298;SDS011;5705;49.006;12.100;2022-08-01T08:19:27;1.30;;;1.20;;
11298;SDS011;5705;49.006;12.100;2022-08-01T08:22:05;1.58;;;1.17;;
11298;SDS011;5705;49.006;12.100;2022-08-01T08:24:34;1.60;;;1.10;;
11298;SDS011;5705;49.006;12.100;2022-08-01T08:27:10;0.97;;;0.97;;
11298;SDS011;5705;49.006;12.100;2022-08-01T08:29:38;1.10;;;1.10;;
11298;SDS011;5705;49.006;12.100;2022-08-01T08:32:06;2.55;;;1.52;;
11298;SDS011;5705;49.006;12.100;2022-08-01T08:34:36;1.20;;;1.10;;
11298;SDS011;5705;49.006;12.100;2022-08-01T08:37:05;1.85;;;1.20;;
11298;SDS011;5705;49.006;12.100;2022-08-01T08:39:34;1.60;;;1.13;;
11298;SDS011;5705;49.006;12.100;2022-08-01T08:42:08;1.50;;;1.17;;
11298;SDS011;5705;49.006;12.100;2022-08-01T08:44:36;1.40;;;1.30;;
11298;SDS011;5705;49.006;12.100;2022-08-01T08:47:09;1.27;;;1.27;;
11298;SDS011;5705;49.006;12.100;2022-08-01T08:49:45;1.53;;;1.30;;
11298;SDS011;5705;49.006;12.100;2022-08-01T08:52:16;1.10;;;1.10;;
11298;SDS011;5705;49.006;12.100;2022-08-01T08:54:45;1.40;;;1.30;;
11298;SDS011;5705;49.006;12.100;2022-08-01T08:57:14;1.13;;;1.13;;
11298;SDS011;5705;49.006;12.100;2022-08-01T08:59:42;2.27;;;1.10;;
11298;SDS011;5705;49.006;12.100;2022-08-01T09:02:10;1.80;;;1.10;;
11298;SDS011;5705;49.006;12.100;2022-08-01T09:04:39;1.85;;;1.40;;
11298;SDS011;5705;49.006;12.100;2022-08-01T09:07:07;1.27;;;1.03;;
11298;SDS011;5705;49.006;12.100;2022-08-01T09:09:38;1.10;;;1.10;;
11298;SDS011;5705;49.006;12.100;2022-08-01T09:12:07;1.77;;;1.40;;
11298;SDS011;5705;49.006;12.100;2022-08-01T09:14:35;1.52;;;1.42;;
11298;SDS011;5705;49.006;12.100;2022-08-01T09:17:11;1.15;;;1.15;;
11298;SDS011;5705;49.006;12.100;2022-08-01T09:19:40;1.90;;;1.43;;
11298;SDS011;5705;49.006;12.100;2022-08-01T09:22:10;2.20;;;1.30;;
11298;SDS011;5705;49.006;12.100;2022-08-01T09:24:40;1.95;;;1.08;;
11298;SDS011;5705;49.006;12.100;2022-08-01T09:27:15;1.20;;;1.05;;
11298;SDS011;5705;49.006;12.100;2022-08-01T09:29:47;1.48;;;1.05;;
11298;SDS011;5705;49.006;12.100;2022-08-01T09:32:27;1.98;;;0.85;;
11298;SDS011;5705;49.006;12.100;2022-08-01T09:35:21;1.15;;;0.80;;
11298;SDS011;5705;49.006;12.100;2022-08-01T09:38:15;1.20;;;0.93;;
11298;SDS011;5705;49.006;12.100;2022-08-01T09:40:47;0.95;;;0.80;;
11298;SDS011;5705;49.006;12.100;2022-08-01T09:43:16;0.98;;;0.63;;
11298;SDS011;5705;49.006;12.100;2022-08-01T09:45:46;1.17;;;0.80;;
11298;SDS011;5705;49.006;12.100;2022-08-01T09:48:18;2.72;;;1.10;;
11298;SDS011;5705;49.006;12.100;2022-08-01T09:50:54;1.60;;;1.10;;
11298;SDS011;5705;49.006;12.100;2022-08-01T09:53:45;1.98;;;0.60;;
11298;SDS011;5705;49.006;12.100;2022-08-01T09:56:20;1.08;;;0.90;;
11298;SDS011;5705;49.006;12.100;2022-08-01T09:58:52;0.70;;;0.70;;
11298;SDS011;5705;49.006;12.100;2022-08-01T10:01:26;1.95;;;0.80;;
11298;SDS011;5705;49.006;12.100;2022-08-01T10:04:04;1.17;;;1.00;;
11298;SDS011;5705;49.006;12.100;2022-08-01T10:06:35;2.97;;;1.30;;
11298;SDS011;5705;49.006;12.100;2022-08-01T10:09:03;1.75;;;0.98;;
11298;SDS011;5705;49.006;12.100;2022-08-01T10:11:32;1.33;;;1.08;;
11298;SDS011;5705;49.006;12.100;2022-08-01T10:14:04;1.10;;;1.00;;
11298;SDS011;5705;49.006;12.100;2022-08-01T10:16:33;1.00;;;1.00;;
11298;SDS011;5705;49.006;12.100;2022-08-01T10:19:05;1.67;;;0.90;;
11298;SDS011;5705;49.006;12.100;2022-08-01T10:21:40;2.42;;;1.00;;
11298;SDS011;5705;49.006;12.100;2022-08-01T10:24:24;1.02;;;0.88;;
11298;SDS011;5705;49.006;12.100;2022-08-01T10:26:56;1.05;;;0.93;;
11298;SDS011;5705;49.006;12.100;2022-08-01T10:29:35;0.95;;;0.82;;
11298;SDS011;5705;49.006;12.100;2022-08-01T10:32:12;1.58;;;0.90;;
11298;SDS011;5705;49.006;12.100;2022-08-01T10:34:40;0.90;;;0.90;;
11298;SDS011;5705;49.006;12.100;2022-08-01T10:37:10;1.05;;;0.93;;
11298;SDS011;5705;49.006;12.100;2022-08-01T10:39:41;0.90;;;0.75;;
11298;SDS011;5705;49.006;12.100;2022-08-01T10:42:10;1.38;;;0.85;;
11298;SDS011;5705;49.006;12.100;2022-08-01T10:44:41;1.58;;;1.48;;
11298;SDS011;5705;49.006;12.100;2022-08-01T10:47:14;0.60;;;0.60;;
11298;SDS011;5705;49.006;12.100;2022-08-01T10:49:53;1.80;;;0.60;;
11298;SDS011;5705;49.006;12.100;2022-08-01T10:52:25;0.73;;;0.73;;
11298;SDS011;5705;49.006;12.100;2022-08-01T10:55:01;2.30;;;0.60;;
11298;SDS011;5705;49.006;12.100;2022-08-01T10:57:42;1.08;;;0.55;;
11298;SDS011;5705;49.006;12.100;2022-08-01T11:00:18;0.70;;;0.70;;
11298;SDS011;5705;49.006;12.100;2022-08-01T11:02:56;1.88;;;0.77;;
11298;SDS011;5705;49.006;12.100;2022-08-01T11:05:27;0.60;;;0.60;;
11298;SDS011;5705;49.006;12.100;2022-08-01T11:07:58;2.40;;;0.60;;
11298;SDS011;5705;49.006;12.100;2022-08-01T11:10:30;0.73;;;0.50;;
11298;SDS011;5705;49.006;12.100;2022-08-01T11:13:02;0.60;;;0.60;;
11298;SDS011;5705;49.006;12.100;2022-08-01T11:15:33;0.60;;;0.60;;
11298;SDS011;5705;49.006;12.100;2022-08-01T11:18:31;0.70;;;0.60;;
11298;SDS011;5705;49.006;12.100;2022-08-01T11:21:03;1.25;;;0.50;;
11298;SDS011;5705;49.006;12.100;2022-08-01T11:23:50;0.73;;;0.40;;
11298;SDS011;5705;49.006;12.100;2022-08-01T11:26:20;0.60;;;0.60;;
11298;SDS011;5705;49.006;12.100;2022-08-01T11:29:15;0.90;;;0.90;;
11298;SDS011;5705;49.006;12.100;2022-08-01T11:31:47;1.50;;;0.70;;
11298;SDS011;5705;49.006;12.100;2022-08-01T11:34:15;0.77;;;0.77;;
11298;SDS011;5705;49.006;12.100;2022-08-01T11:36:45;1.70;;;0.70;;
11298;SDS011;5705;49.006;12.100;2022-08-01T11:39:29;0.70;;;0.70;;
11298;SDS011;5705;49.006;12.100;2022-08-01T11:44:53;1.33;;;0.68;;
11298;SDS011;5705;49.006;12.100;2022-08-01T11:50:31;4.28;;;0.65;;
11298;SDS011;5705;49.006;12.100;2022-08-01T11:53:06;0.70;;;0.70;;
11298;SDS011;5705;49.006;12.100;2022-08-01T11:55:37;0.98;;;0.68;;
11298;SDS011;5705;49.006;12.100;2022-08-01T11:58:20;0.60;;;0.60;;
11298;SDS011;5705;49.006;12.100;2022-08-01T12:00:57;1.98;;;0.70;;
11298;SDS011;5705;49.006;12.100;2022-08-01T12:03:26;0.93;;;0.93;;
11298;SDS011;5705;49.006;12.100;2022-08-01T12:05:59;1.05;;;0.63;;
11298;SDS011;5705;49.006;12.100;2022-08-01T12:08:27;1.02;;;0.60;;
11298;SDS011;5705;49.006;12.100;2022-08-01T12:10:56;0.82;;;0.82;;
11298;SDS011;5705;49.006;12.100;2022-08-01T12:13:27;0.73;;;0.73;;
11298;SDS011;5705;49.006;12.100;2022-08-01T12:15:58;1.02;;;0.70;;
11298;SDS011;5705;49.006;12.100;2022-08-01T12:18:37;1.42;;;0.60;;
11298;SDS011;5705;49.006;12.100;2022-08-01T12:21:05;0.38;;;0.38;;
11298;SDS011;5705;49.006;12.100;2022-08-01T12:23:33;1.05;;;0.70;;
11298;SDS011;5705;49.006;12.100;2022-08-01T12:26:01;0.40;;;0.40;;
11298;SDS011;5705;49.006;12.100;2022-08-01T12:28:30;0.65;;;0.60;;
11298;SDS011;5705;49.006;12.100;2022-08-01T12:33:38;0.95;;;0.70;;
11298;SDS011;5705;49.006;12.100;2022-08-01T12:36:06;2.15;;;0.63;;
11298;SDS011;5705;49.006;12.100;2022-08-01T12:38:39;0.60;;;0.52;;
11298;SDS011;5705;49.006;12.100;2022-08-01T12:41:09;0.43;;;0.40;;
11298;SDS011;5705;49.006;12.100;2022-08-01T12:43:37;0.73;;;0.70;;
11298;SDS011;5705;49.006;12.100;2022-08-01T12:46:05;0.60;;;0.60;;
11298;SDS011;5705;49.006;12.100;2022-08-01T12:48:36;2.20;;;0.70;;
11298;SDS011;5705;49.006;12.100;2022-08-01T12:51:05;1.63;;;0.50;;
11298;SDS011;5705;49.006;12.100;2022-08-01T12:53:35;0.70;;;0.70;;
11298;SDS011;5705;49.006;12.100;2022-08-01T12:56:06;0.60;;;0.60;;
11298;SDS011;5705;49.006;12.100;2022-08-01T12:58:35;0.43;;;0.40;;
11298;SDS011;5705;49.006;12.100;2022-08-01T13:01:04;1.65;;;0.73;;
11298;SDS011;5705;49.006;12.100;2022-08-01T13:03:33;0.93;;;0.55;;
11298;SDS011;5705;49.006;12.100;2022-08-01T13:06:08;1.83;;;0.50;;
11298;SDS011;5705;49.006;12.100;2022-08-01T13:08:37;0.52;;;0.50;;
11298;SDS011;5705;49.006;12.100;2022-08-01T13:11:06;0.40;;;0.40;;
11298;SDS011;5705;49.006;12.100;2022-08-01T13:13:37;2.58;;;0.70;;
11298;SDS011;5705;49.006;12.100;2022-08-01T13:16:07;1.63;;;0.80;;
11298;SDS011;5705;49.006;12.100;2022-08-01T13:18:41;0.75;;;0.75;;
11298;SDS011;5705;49.006;12.100;2022-08-01T13:21:17;0.50;;;0.50;;
11298;SDS011;5705;49.006;12.100;2022-08-01T13:23:59;0.55;;;0.55;;
11298;SDS011;5705;49.006;12.100;2022-08-01T13:26:39;2.85;;;0.70;;
11298;SDS011;5705;49.006;12.100;2022-08-01T13:29:08;1.65;;;0.60;;
11298;SDS011;5705;49.006;12.100;2022-08-01T13:31:37;1.20;;;1.05;;
11298;SDS011;5705;49.006;12.100;2022-08-01T13:34:06;1.67;;;0.82;;
11298;SDS011;5705;49.006;12.100;2022-08-01T13:36:36;0.93;;;0.75;;
11298;SDS011;5705;49.006;12.100;2022-08-01T13:39:12;1.08;;;0.70;;
11298;SDS011;5705;49.006;12.100;2022-08-01T13:41:57;2.92;;;0.70;;
11298;SDS011;5705;49.006;12.100;2022-08-01T13:44:25;0.98;;;0.57;;
11298;SDS011;5705;49.006;12.100;2022-08-01T13:46:52;1.27;;;1.27;;
11298;SDS011;5705;49.006;12.100;2022-08-01T13:49:22;0.80;;;0.70;;
11298;SDS011;5705;49.006;12.100;2022-08-01T13:52:04;0.40;;;0.40;;
11298;SDS011;5705;49.006;12.100;2022-08-01T13:54:39;0.45;;;0.45;;
11298;SDS011;5705;49.006;12.100;2022-08-01T13:57:07;0.38;;;0.38;;
11298;SDS011;5705;49.006;12.100;2022-08-01T13:59:35;0.90;;;0.50;;
11298;SDS011;5705;49.006;12.100;2022-08-01T14:02:03;0.60;;;0.55;;
11298;SDS011;5705;49.006;12.100;2022-08-01T14:04:31;1.08;;;0.52;;
11298;SDS011;5705;49.006;12.100;2022-08-01T14:06:59;0.63;;;0.40;;
11298;SDS011;5705;49.006;12.100;2022-08-01T14:09:36;1.10;;;0.20;;
11298;SDS011;5705;49.006;12.100;2022-08-01T14:12:23;0.40;;;0.30;;
11298;SDS011;5705;49.006;12.100;2022-08-01T14:14:50;0.40;;;0.40;;
11298;SDS011;5705;49.006;12.100;2022-08-01T14:17:18;0.40;;;0.40;;
11298;SDS011;5705;49.006;12.100;2022-08-01T14:19:47;0.28;;;0.28;;
11298;SDS011;5705;49.006;12.100;2022-08-01T14:22:14;2.28;;;0.30;;
11298;SDS011;5705;49.006;12.100;2022-08-01T14:24:43;0.77;;;0.50;;
11298;SDS011;5705;49.006;12.100;2022-08-01T14:27:12;0.88;;;0.40;;
11298;SDS011;5705;49.006;12.100;2022-08-01T14:29:40;2.80;;;0.55;;
11298;SDS011;5705;49.006;12.100;2022-08-01T14:32:28;0.65;;;0.40;;
11298;SDS011;5705;49.006;12.100;2022-08-01T14:34:55;0.20;;;0.20;;
11298;SDS011;5705;49.006;12.100;2022-08-01T14:37:23;1.05;;;0.30;;
11298;SDS011;5705;49.006;12.100;2022-08-01T14:39:56;0.30;;;0.30;;
11298;SDS011;5705;49.006;12.100;2022-08-01T14:42:24;0.25;;;0.20;;
11298;SDS011;5705;49.006;12.100;2022-08-01T14:44:52;0.52;;;0.22;;
11298;SDS011;5705;49.006;12.100;2022-08-01T14:47:20;1.08;;;0.17;;
11298;SDS011;5705;49.006;12.100;2022-08-01T14:49:48;0.47;;;0.30;;
11298;SDS011;5705;49.006;12.100;2022-08-01T14:52:16;0.40;;;0.40;;
11298;SDS011;5705;49.006;12.100;2022-08-01T14:54:44;0.70;;;0.30;;
11298;SDS011;5705;49.006;12.100;2022-08-01T14:57:13;1.30;;;0.40;;
11298;SDS011;5705;49.006;12.100;2022-08-01T14:59:44;0.30;;;0.30;;
11298;SDS011;5705;49.006;12.100;2022-08-01T15:02:12;0.20;;;0.20;;
11298;SDS011;5705;49.006;12.100;2022-08-01T15:04:43;0.75;;;0.30;;
11298;SDS011;5705;49.006;12.100;2022-08-01T15:07:11;0.68;;;0.20;;
11298;SDS011;5705;49.006;12.100;2022-08-01T15:09:39;0.35;;;0.35;;
11298;SDS011;5705;49.006;12.100;2022-08-01T15:12:08;1.98;;;0.38;;
11298;SDS011;5705;49.006;12.100;2022-08-01T15:14:38;0.40;;;0.32;;
11298;SDS011;5705;49.006;12.100;2022-08-01T15:17:14;0.20;;;0.20;;
11298;SDS011;5705;49.006;12.100;2022-08-01T15:19:42;0.30;;;0.30;;